Latest Weather Observations for Lombadina

IDW60801

Issued at 9:02 pm WST Sunday 24 May 2015 (issued every 30 minutes, with the page automatically refreshed every 10 minutes)

About weather observations | Map of weather stations | Latest weather observations for WA | Other Formats
Station Details ID: 503016 Name: LOMBADINA AIRSTRIP Lat: -16.52 Lon: 122.92 Height: 42.0 m
Data from the previous 72 hours. | See also: Recent months for locations in Western Australia
Date/Time
WST
Temp
°C
App
Temp
°C
Dew
Point
Rel
Hum
%
Delta-T
°C
Wind Press
QNH
hPa
Press
MSL
hPa
Rain
since 9 am
mm
Dir
 
Spd
km/h
Gust
km/h
Spd
kts
Gust
kts
24/09:00pm 24.6 27.0 18.0 66 4.1 NNE 2 7 1 4 1015.5 1015.3 0.0
24/08:30pm 24.9 26.7 18.2 66 4.2 NNE 6 9 3 5 1015.7 1015.5 0.0
24/08:00pm 24.5 26.2 18.0 67 4.1 NNE 6 7 3 4 1015.6 1015.4 0.0
24/07:30pm 25.3 27.1 17.4 61 4.9 NNE 4 7 2 4 1015.4 1015.2 0.0
24/07:00pm 25.4 27.4 17.8 62 4.8 NNE 4 7 2 4 1015.1 1014.9 0.0
24/06:30pm 25.5 28.0 19.1 67 4.1 NNE 4 6 2 3 1014.8 1014.6 0.0
24/06:00pm 25.9 28.9 19.3 67 4.2 NNE 2 4 1 2 1014.6 1014.4 0.0
24/05:30pm 27.0 29.5 19.1 62 5.1 NNE 4 7 2 4 1014.3 1014.1 0.0
24/05:00pm 28.1 30.2 19.0 57 5.9 NE 6 11 3 6 1014.1 1013.9 0.0
24/04:30pm 28.5 30.4 18.9 56 6.2 ENE 7 11 4 6 1013.8 1013.6 0.0
24/04:00pm 28.6 30.1 18.9 55 6.3 ENE 9 15 5 8 1013.3 1013.1 0.0
24/03:30pm 29.2 31.6 20.9 61 5.5 ENE 9 20 5 11 1013.1 1012.9 0.0
24/03:00pm 29.5 31.1 19.9 56 6.3 ENE 11 20 6 11 1013.1 1012.9 0.0
24/02:30pm 29.0 31.7 22.2 66 4.6 E 11 24 6 13 1013.0 1012.8 0.0
24/02:00pm 29.4 32.1 22.1 65 4.9 E 11 17 6 9 1013.0 1012.8 0.0
24/01:30pm 29.6 31.2 20.0 56 6.3 ENE 11 20 6 11 1013.2 1013.0 0.0
24/01:00pm 29.1 31.4 20.7 60 5.6 ESE 9 20 5 11 1013.5 1013.3 0.0
24/12:30pm 29.4 31.6 21.8 63 5.1 E 13 20 7 11 1013.8 1013.6 0.0
24/12:00pm 29.2 31.7 21.7 64 5.0 ENE 11 20 6 11 1014.2 1014.0 0.0
24/11:30am 29.7 32.8 22.1 63 5.1 ENE 9 17 5 9 1014.6 1014.4 0.0
24/11:00am 28.5 31.7 22.3 69 4.2 E 9 17 5 9 1015.0 1014.8 0.0
24/10:30am 28.6 32.1 22.9 71 3.9 E 9 19 5 10 1015.4 1015.2 0.0
24/10:00am 28.0 32.1 23.3 75 3.2 ESE 7 17 4 9 1015.5 1015.3 0.0
24/09:30am 28.4 32.3 23.6 75 3.3 ESE 9 17 5 9 1015.8 1015.6 0.0
24/09:00am 28.0 32.7 23.9 78 2.8 SE 6 11 3 6 1015.8 1015.6 0.0
24/08:30am 27.0 32.1 24.7 87 1.6 SE 6 11 3 6 1015.8 1015.6 0.0
24/08:00am 25.3 31.4 25.1 99 0.1 ESE 2 7 1 4 1015.5 1015.3 0.0
24/07:30am 23.9 29.3 23.9 100 0.0 SSE 2 7 1 4 1015.4 1015.2 0.0
24/07:00am 22.6 27.3 22.6 100 0.0 SSE 2 6 1 3 1015.3 1015.1 0.0
24/06:30am 22.3 26.4 22.3 100 0.0 SE 4 7 2 4 1014.9 1014.7 0.0
24/06:00am 22.3 26.4 22.3 100 0.0 SE 4 7 2 4 1014.7 1014.5 0.0
24/05:30am 22.7 26.7 22.7 100 0.0 SE 6 9 3 5 1014.4 1014.2 0.0
24/05:19am 22.8 26.8 22.7 99 0.1 SE 6 9 3 5 1014.4 1014.2 0.0
24/05:00am 22.8 26.8 22.8 100 0.0 SSE 6 9 3 5 1014.3 1014.1 0.0
24/04:30am 23.0 27.1 23.0 100 0.0 SSE 6 9 3 5 1014.2 1014.0 0.0
24/04:11am 23.0 27.1 23.0 100 0.0 SE 6 11 3 6 1014.3 1014.1 0.0
24/04:00am 22.7 26.7 22.7 100 0.0 ESE 6 11 3 6 1014.1 1013.9 0.0
24/03:30am 22.2 26.7 22.2 100 0.0 ESE 2 6 1 3 1013.9 1013.7 0.0
24/03:00am 21.2 25.5 21.2 100 0.0 CALM 0 4 0 2 1013.9 1013.7 0.0
24/02:30am 20.8 24.5 20.7 99 0.1 S 2 4 1 2 1014.0 1013.8 0.0
24/02:00am 22.2 27.0 22.2 100 0.0 CALM 0 0 0 0 1014.0 1013.8 0.0
24/01:30am 21.7 26.3 21.7 100 0.0 CALM 0 2 0 1 1014.1 1013.9 0.0
24/01:00am 21.8 26.4 21.8 100 0.0 CALM 0 0 0 0 1014.4 1014.2 0.0
24/12:30am 22.2 27.0 22.2 100 0.0 CALM 0 0 0 0 1014.5 1014.3 0.0
24/12:00am 21.4 25.8 21.4 100 0.0 CALM 0 4 0 2 1014.6 1014.4 0.0
 
Date/Time
WST
Temp
°C
App
Temp
°C
Dew
Point
Rel
Hum
%
Delta-T
°C
Wind Press
QNH
hPa
Press
MSL
hPa
Rain
since 9 am
mm
Dir
 
Spd
km/h
Gust
km/h
Spd
kts
Gust
kts
23/11:30pm 22.6 27.7 22.6 100 0.0 CALM 0 0 0 0 1014.7 1014.5 0.0
23/11:00pm 21.8 26.3 21.6 99 0.1 CALM 0 2 0 1 1014.8 1014.6 0.0
23/10:30pm 22.1 26.8 21.9 99 0.1 CALM 0 2 0 1 1014.8 1014.6 0.0
23/10:00pm 22.0 26.6 21.8 99 0.1 CALM 0 4 0 2 1014.9 1014.7 0.0
23/09:30pm 21.8 26.0 21.8 100 0.0 SW 2 6 1 3 1015.0 1014.8 0.0
23/09:00pm 21.8 26.3 21.5 98 0.2 CALM 0 2 0 1 1014.7 1014.5 0.0
23/08:30pm 22.0 26.5 21.6 98 0.3 CALM 0 2 0 1 1014.9 1014.7 0.0
23/08:00pm 23.1 28.3 22.8 98 0.2 CALM 0 0 0 0 1014.8 1014.6 0.0
23/07:30pm 22.6 27.3 21.9 96 0.5 CALM 0 2 0 1 1014.8 1014.6 0.0
23/07:00pm 23.0 27.6 21.7 92 0.9 CALM 0 0 0 0 1014.6 1014.4 0.0
23/06:30pm 23.5 28.1 21.8 90 1.1 CALM 0 0 0 0 1014.5 1014.3 0.0
23/06:00pm 24.9 29.4 21.5 81 2.3 CALM 0 0 0 0 1014.1 1013.9 0.0
23/05:30pm 27.4 31.5 22.3 73 3.4 N 4 7 2 4 1013.9 1013.7 0.0
23/05:00pm 28.1 31.7 22.4 71 3.9 NW 7 13 4 7 1013.9 1013.7 0.0
23/04:30pm 28.9 31.6 21.3 63 5.1 N 9 13 5 7 1014.0 1013.8 0.0
23/04:00pm 29.5 32.2 21.3 61 5.5 N 9 17 5 9 1013.7 1013.5 0.0
23/03:30pm 29.9 31.2 20.1 55 6.5 NNE 13 20 7 11 1013.4 1013.2 0.0
23/03:00pm 29.8 31.4 19.9 55 6.5 N 11 22 6 12 1013.5 1013.3 0.0
23/02:30pm 30.8 31.3 19.2 50 7.6 N 15 20 8 11 1013.4 1013.2 0.0
23/02:00pm 31.6 31.9 18.0 44 8.8 NNE 13 22 7 12 1013.5 1013.3 0.0
23/01:30pm 31.4 31.7 18.7 46 8.2 N 15 26 8 14 1013.8 1013.6 0.0
23/01:00pm 31.7 31.8 18.4 45 8.6 NNE 15 20 8 11 1014.0 1013.8 0.0
23/12:30pm 31.4 33.7 21.3 55 6.8 NE 11 20 6 11 1014.5 1014.3 0.0
23/12:00pm 30.8 32.2 20.4 54 6.9 NE 13 24 7 13 1014.7 1014.5 0.0
23/11:30am 31.6 33.4 21.2 54 7.0 NE 13 20 7 11 1015.0 1014.8 0.0
23/11:00am 31.4 33.1 20.2 51 7.4 N 11 20 6 11 1015.5 1015.3 0.0
23/10:30am 30.4 32.6 19.6 52 7.1 N 7 15 4 8 1015.6 1015.4 0.0
23/10:00am 29.8 33.1 21.8 62 5.4 N 7 15 4 8 1016.1 1015.9 0.0
23/09:30am 30.3 33.6 21.9 60 5.7 NNE 7 15 4 8 1016.4 1016.2 0.0
23/09:00am 29.6 34.2 22.4 65 4.9 SE 2 11 1 6 1016.4 1016.2 0.0
23/08:30am 28.5 34.2 24.4 78 2.9 E 2 9 1 5 1016.4 1016.2 0.0
23/08:00am 27.3 33.5 25.8 91 1.1 ESE 4 7 2 4 1016.4 1016.2 0.0
23/07:30am 25.7 32.2 25.7 100 0.0 SE 2 6 1 3 1016.4 1016.2 0.0
23/07:00am 24.9 30.5 24.9 100 0.0 ESE 4 7 2 4 1016.2 1016.0 0.0
23/06:30am 23.9 28.9 23.9 100 0.0 ESE 4 7 2 4 1015.8 1015.6 0.0
23/06:00am 23.2 28.2 23.2 100 0.0 ESE 2 4 1 2 1015.5 1015.3 0.0
23/05:30am 23.3 28.4 23.3 100 0.0 ESE 2 4 1 2 1015.2 1015.0 0.0
23/05:00am 23.3 28.0 23.3 100 0.0 SE 4 7 2 4 1015.2 1015.0 0.0
23/04:30am 23.8 28.8 23.8 100 0.0 ESE 4 7 2 4 1015.0 1014.8 0.0
23/04:00am 23.8 28.8 23.8 100 0.0 ESE 4 7 2 4 1014.9 1014.7 0.0
23/03:30am 24.0 29.1 24.0 100 0.0 ESE 4 9 2 5 1014.8 1014.6 0.0
23/03:29am 24.0 29.1 24.0 100 0.0 ESE 4 9 2 5 1014.8 1014.6 0.0
23/03:00am 23.8 28.8 23.8 100 0.0 ESE 4 9 2 5 1014.9 1014.7 0.0
23/02:42am 23.8 28.1 23.7 99 0.1 ESE 7 15 4 8 1014.9 1014.7 0.0
23/02:30am 23.1 28.0 23.1 100 0.0 WSW 2 11 1 6 1014.8 1014.6 0.0
23/02:00am 23.2 28.2 23.2 100 0.0 WSW 2 6 1 3 1014.3 1014.1 0.0
23/01:30am 22.5 27.1 22.4 99 0.1 WSW 2 4 1 2 1014.4 1014.2 0.0
23/01:00am 23.1 28.0 23.0 99 0.1 WSW 2 6 1 3 1014.6 1014.4 0.0
23/12:30am 23.2 28.2 23.2 100 0.0 WSW 2 6 1 3 1014.7 1014.5 0.0
23/12:00am 23.1 27.6 22.9 99 0.1 WSW 4 7 2 4 1014.9 1014.7 0.0
 
Date/Time
WST
Temp
°C
App
Temp
°C
Dew
Point
Rel
Hum
%
Delta-T
°C
Wind Press
QNH
hPa
Press
MSL
hPa
Rain
since 9 am
mm
Dir
 
Spd
km/h
Gust
km/h
Spd
kts
Gust
kts
22/11:30pm 22.8 27.5 22.6 99 0.1 W 2 7 1 4 1014.9 1014.7 0.0
22/11:00pm 22.7 27.2 22.2 97 0.3 W 2 6 1 3 1015.0 1014.8 0.0
22/10:30pm 22.1 26.2 21.5 96 0.4 W 2 4 1 2 1015.3 1015.1 0.0
22/10:00pm 24.5 29.1 23.8 96 0.5 NNW 6 7 3 4 1015.4 1015.2 0.0
22/09:30pm 24.8 29.8 23.9 95 0.6 NNW 4 7 2 4 1015.3 1015.1 0.0
22/09:00pm 24.6 29.3 23.3 92 0.9 NNW 4 7 2 4 1015.3 1015.1 0.0
22/08:30pm 24.6 28.7 23.0 91 1.1 N 6 7 3 4 1015.4 1015.2 0.0
22/08:00pm 24.6 28.7 22.3 87 1.5 N 4 7 2 4 1015.4 1015.2 0.0
22/07:30pm 25.0 29.6 22.5 86 1.7 NNE 2 6 1 3 1015.4 1015.2 0.0
22/07:00pm 25.1 29.7 22.4 85 1.8 NNE 2 6 1 3 1015.1 1014.9 0.0
22/06:30pm 25.4 29.3 21.9 81 2.3 NNE 4 6 2 3 1014.8 1014.6 0.0
22/06:00pm 26.1 30.2 21.6 76 3.0 NNE 2 6 1 3 1014.5 1014.3 0.0
22/05:30pm 27.2 30.6 21.7 72 3.7 NNE 6 9 3 5 1014.3 1014.1 0.0
22/05:00pm 28.5 31.0 20.2 60 5.5 NE 7 11 4 6 1014.0 1013.8 0.0
22/04:30pm 29.5 31.8 19.8 56 6.4 NE 7 11 4 6 1013.7 1013.5 0.0
22/04:00pm 29.8 30.8 18.6 51 7.2 NE 11 17 6 9 1013.5 1013.3 0.0
22/03:30pm 30.9 31.0 15.6 39 9.5 E 9 17 5 9 1013.4 1013.2 0.0
22/03:00pm 31.0 30.7 14.5 36 10.1 ENE 9 15 5 8 1013.5 1013.3 0.0
22/02:30pm 30.7 31.0 15.0 38 9.6 ENE 7 15 4 8 1013.4 1013.2 0.0
22/02:00pm 29.3 29.6 16.9 47 7.8 E 11 19 6 10 1013.6 1013.4 0.0
22/01:30pm 29.5 29.4 16.9 46 7.9 E 13 24 7 13 1013.8 1013.6 0.0
22/01:00pm 29.6 29.2 17.2 47 7.8 E 15 22 8 12 1014.0 1013.8 0.0
22/12:30pm 32.2 32.0 13.7 32 11.2 SE 7 13 4 7 1014.3 1014.1 0.0
22/12:00pm 30.9 29.6 11.3 30 11.4 S 9 13 5 7 1014.4 1014.2 0.0
22/11:30am 30.3 29.9 12.9 34 10.3 SE 7 15 4 8 1014.7 1014.5 0.0
22/11:00am 29.8 29.1 12.1 33 10.3 ESE 7 13 4 7 1015.1 1014.9 0.0
22/10:30am 28.5 27.6 13.8 40 8.8 ESE 11 19 6 10 1015.5 1015.3 0.0
22/10:00am 27.8 26.5 13.8 42 8.3 ESE 13 22 7 12 1015.8 1015.6 0.0
22/09:30am 26.8 25.1 13.7 44 7.8 ESE 15 22 8 12 1016.1 1015.9 0.0
22/09:00am 25.6 24.6 13.3 46 7.2 SE 11 20 6 11 1016.2 1016.0 0.0
22/08:30am 24.7 23.6 13.0 48 6.8 SE 11 17 6 9 1016.0 1015.8 0.0
22/08:00am 23.7 22.8 12.6 49 6.4 SE 9 19 5 10 1015.9 1015.7 0.0
22/07:30am 23.2 22.4 12.8 52 6.0 SE 9 17 5 9 1015.6 1015.4 0.0
22/07:00am 22.1 21.1 12.2 53 5.6 SE 9 15 5 8 1015.2 1015.0 0.0
22/06:30am 21.3 19.8 10.5 50 5.9 SE 9 15 5 8 1015.0 1014.8 0.0
22/06:00am 21.8 19.6 9.5 45 6.6 SE 11 19 6 10 1014.9 1014.7 0.0
22/05:30am 22.1 20.4 9.9 46 6.6 SE 9 15 5 8 1014.9 1014.7 0.0
22/05:00am 22.3 20.6 9.7 44 6.8 SE 9 17 5 9 1014.5 1014.3 0.0
22/04:30am 22.6 20.9 9.7 44 7.0 SE 9 15 5 8 1014.3 1014.1 0.0
22/04:00am 22.9 21.2 10.0 44 7.0 SE 9 19 5 10 1014.1 1013.9 0.0
22/03:30am 22.7 21.4 9.9 44 7.0 SE 7 13 4 7 1014.3 1014.1 0.0
22/03:00am 22.5 21.4 10.5 46 6.6 SE 7 11 4 6 1014.4 1014.2 0.0
22/02:30am 22.8 21.8 10.2 44 6.9 SE 6 9 3 5 1014.1 1013.9 0.0
22/02:00am 23.3 22.7 10.4 44 7.1 S 4 7 2 4 1014.4 1014.2 0.0
22/01:30am 21.5 21.6 11.4 52 5.6 SSE 2 6 1 3 1014.6 1014.4 0.0
22/01:00am 21.2 21.0 11.8 55 5.3 S 4 6 2 3 1014.8 1014.6 0.0
22/12:30am 21.9 21.9 12.5 55 5.3 S 4 7 2 4 1014.8 1014.6 0.0
22/12:00am 21.5 21.7 13.2 59 4.8 S 4 7 2 4 1015.1 1014.9 0.0
 
Date/Time
WST
Temp
°C
App
Temp
°C
Dew
Point
Rel
Hum
%
Delta-T
°C
Wind Press
QNH
hPa
Press
MSL
hPa
Rain
since 9 am
mm
Dir
 
Spd
km/h
Gust
km/h
Spd
kts
Gust
kts
21/11:30pm 21.0 21.5 14.0 64 4.1 S 4 7 2 4 1015.2 1015.0 0.0
21/11:00pm 20.9 21.6 14.6 67 3.7 S 4 6 2 3 1015.2 1015.0 0.0
21/10:30pm 21.3 22.0 15.6 70 3.4 SSW 6 9 3 5 1015.5 1015.3 0.0
21/10:00pm 21.1 22.2 15.7 71 3.2 SSW 4 6 2 3 1015.3 1015.1 0.0
21/09:30pm 21.1 22.7 16.0 72 3.1 SW 2 6 1 3 1015.5 1015.3 0.0

Other Formats:

Comma delimited format used in spreadsheet applications
http://www.bom.gov.au/fwo/IDW60801/IDW60801.99206.axf

JavaScript Object Notation format (JSON) in row-major order
http://www.bom.gov.au/fwo/IDW60801/IDW60801.99206.json